METAR Data
IDs: Format: Raw Decoded Include TAF

Data at: 1956 UTC 18 Apr 2021

KDLL 181955Z AUTO 27007KT 10SM OVC075 14/M04 A2982 RMK AO2 T01361036